KERI/ERI METAR and TAF weather

Enter ICAO airport designator
Station Type Date Time Source
KERI METAR 2020/07/10 17:51 UTC NOAA

KERI 101751Z VRB04KT 10SM SCT050 SCT060 34/20 A2978 RMK AO2 SLP078 T03440200 10344 20267 58021


Station Type Date Time Source
KERI Decoded METAR 2020/07/10 17:51 UTC NOAA

ERIE INTERNATIONAL AIRPORT, PA, United States (KERI) 42-05N 080-11W 222M
Jul 10, 2020 - 01:51 PM EDT / 2020.07.10 1751 UTC
Wind: Variable at 5 MPH (4 KT):0
Visibility: 10 mile(s):0
Sky conditions: partly cloudy
Temperature: 93.9 F (34.4 C)
Heat index: 98.1 F (36.7 C):1
Dew Point: 68.0 F (20.0 C)
Relative Humidity: 42%
Pressure (altimeter): 29.78 in. Hg (1008 hPa)
Pressure tendency: 0.06 inches (2.1 hPa) lower than three hours ago
ob: KERI 101751Z VRB04KT 10SM SCT050 SCT060 34/20 A2978 RMK AO2 SLP078 T03440200 10344 20267 58021
cycle: 18

Station Type Date Time Source
KERI TAF 2020/07/10 18:45 UTC NOAA

TAF KERI 101742Z 1018/1118 19010KT P6SM SCT050
TEMPO 1020/1024 1/4SM +TSRA FG OVC015CB
FM110000 19004KT P6SM BKN090
FM110900 18006KT 6SM -TSRA BR BKN025CB
FM111400 22007KT 6SM -TSRA BR OVC015CB
FM111700 28012KT 6SM -TSRA BR BKN025CB

Example: see airport list